sensor_id;sensor_type;location;lat;lon;timestamp;P1;durP1;ratioP1;P2;durP2;ratioP2
10299;SDS011;5195;48.562;9.192;2024-03-02T00:01:56;12.73;;;11.53;;
10299;SDS011;5195;48.562;9.192;2024-03-02T00:04:32;15.05;;;13.65;;
10299;SDS011;5195;48.562;9.192;2024-03-02T00:07:08;15.87;;;14.47;;
10299;SDS011;5195;48.562;9.192;2024-03-02T00:09:44;12.73;;;11.53;;
10299;SDS011;5195;48.562;9.192;2024-03-02T00:12:20;11.73;;;10.53;;
10299;SDS011;5195;48.562;9.192;2024-03-02T00:14:55;12.40;;;10.63;;
10299;SDS011;5195;48.562;9.192;2024-03-02T00:17:34;13.83;;;12.57;;
10299;SDS011;5195;48.562;9.192;2024-03-02T00:20:10;14.33;;;13.07;;
10299;SDS011;5195;48.562;9.192;2024-03-02T00:22:46;11.70;;;10.60;;
10299;SDS011;5195;48.562;9.192;2024-03-02T00:25:22;10.90;;;9.90;;
10299;SDS011;5195;48.562;9.192;2024-03-02T00:27:59;10.83;;;9.50;;
10299;SDS011;5195;48.562;9.192;2024-03-02T00:30:43;12.77;;;11.67;;
10299;SDS011;5195;48.562;9.192;2024-03-02T00:33:32;13.47;;;12.27;;
10299;SDS011;5195;48.562;9.192;2024-03-02T00:36:07;10.20;;;9.20;;
10299;SDS011;5195;48.562;9.192;2024-03-02T00:38:46;11.82;;;10.73;;
10299;SDS011;5195;48.562;9.192;2024-03-02T00:41:22;11.27;;;9.10;;
10299;SDS011;5195;48.562;9.192;2024-03-02T00:46:37;12.43;;;11.33;;
10299;SDS011;5195;48.562;9.192;2024-03-02T00:49:20;10.20;;;9.30;;
10299;SDS011;5195;48.562;9.192;2024-03-02T00:51:57;12.43;;;11.40;;
10299;SDS011;5195;48.562;9.192;2024-03-02T00:54:33;12.90;;;11.70;;
10299;SDS011;5195;48.562;9.192;2024-03-02T00:57:10;11.12;;;10.23;;
10299;SDS011;5195;48.562;9.192;2024-03-02T00:59:45;10.40;;;9.60;;
10299;SDS011;5195;48.562;9.192;2024-03-02T01:02:20;10.50;;;9.70;;
10299;SDS011;5195;48.562;9.192;2024-03-02T01:04:56;10.17;;;9.37;;
10299;SDS011;5195;48.562;9.192;2024-03-02T01:07:32;8.57;;;7.87;;
10299;SDS011;5195;48.562;9.192;2024-03-02T01:10:08;8.50;;;7.77;;
10299;SDS011;5195;48.562;9.192;2024-03-02T01:12:46;9.57;;;8.88;;
10299;SDS011;5195;48.562;9.192;2024-03-02T01:15:22;9.80;;;9.10;;
10299;SDS011;5195;48.562;9.192;2024-03-02T01:17:58;10.60;;;9.73;;
10299;SDS011;5195;48.562;9.192;2024-03-02T01:20:33;10.80;;;9.90;;
10299;SDS011;5195;48.562;9.192;2024-03-02T01:23:11;10.13;;;9.40;;
10299;SDS011;5195;48.562;9.192;2024-03-02T01:25:52;9.07;;;8.27;;
10299;SDS011;5195;48.562;9.192;2024-03-02T01:28:27;8.00;;;7.30;;
10299;SDS011;5195;48.562;9.192;2024-03-02T01:31:05;8.03;;;7.33;;
10299;SDS011;5195;48.562;9.192;2024-03-02T01:33:40;7.97;;;7.27;;
10299;SDS011;5195;48.562;9.192;2024-03-02T01:36:16;7.90;;;7.30;;
10299;SDS011;5195;48.562;9.192;2024-03-02T01:38:52;8.13;;;7.40;;
10299;SDS011;5195;48.562;9.192;2024-03-02T01:41:28;7.07;;;6.47;;
10299;SDS011;5195;48.562;9.192;2024-03-02T01:44:04;7.70;;;7.10;;
10299;SDS011;5195;48.562;9.192;2024-03-02T01:46:39;7.60;;;7.00;;
10299;SDS011;5195;48.562;9.192;2024-03-02T01:49:15;9.68;;;8.95;;
10299;SDS011;5195;48.562;9.192;2024-03-02T01:51:52;8.50;;;7.80;;
10299;SDS011;5195;48.562;9.192;2024-03-02T01:54:27;8.17;;;7.47;;
10299;SDS011;5195;48.562;9.192;2024-03-02T01:57:03;9.32;;;8.63;;
10299;SDS011;5195;48.562;9.192;2024-03-02T01:59:40;10.02;;;9.18;;
10299;SDS011;5195;48.562;9.192;2024-03-02T02:02:17;8.17;;;7.43;;
10299;SDS011;5195;48.562;9.192;2024-03-02T02:04:53;8.47;;;7.77;;
10299;SDS011;5195;48.562;9.192;2024-03-02T02:07:29;10.20;;;9.40;;
10299;SDS011;5195;48.562;9.192;2024-03-02T02:10:05;10.20;;;9.47;;
10299;SDS011;5195;48.562;9.192;2024-03-02T02:12:43;9.33;;;8.17;;
10299;SDS011;5195;48.562;9.192;2024-03-02T02:15:26;8.53;;;7.83;;
10299;SDS011;5195;48.562;9.192;2024-03-02T02:18:01;8.70;;;8.00;;
10299;SDS011;5195;48.562;9.192;2024-03-02T02:20:37;10.53;;;9.73;;
10299;SDS011;5195;48.562;9.192;2024-03-02T02:23:14;11.82;;;10.80;;
10299;SDS011;5195;48.562;9.192;2024-03-02T02:25:50;9.40;;;8.60;;
10299;SDS011;5195;48.562;9.192;2024-03-02T02:28:26;9.57;;;8.53;;
10299;SDS011;5195;48.562;9.192;2024-03-02T02:31:02;11.10;;;10.20;;
10299;SDS011;5195;48.562;9.192;2024-03-02T02:33:39;11.20;;;10.30;;
10299;SDS011;5195;48.562;9.192;2024-03-02T02:36:13;9.33;;;8.43;;
10299;SDS011;5195;48.562;9.192;2024-03-02T02:38:49;11.10;;;10.20;;
10299;SDS011;5195;48.562;9.192;2024-03-02T02:41:26;11.05;;;10.15;;
10299;SDS011;5195;48.562;9.192;2024-03-02T02:44:01;9.27;;;8.57;;
10299;SDS011;5195;48.562;9.192;2024-03-02T02:46:37;12.00;;;10.75;;
10299;SDS011;5195;48.562;9.192;2024-03-02T02:49:12;9.53;;;8.73;;
10299;SDS011;5195;48.562;9.192;2024-03-02T02:51:48;9.07;;;8.27;;
10299;SDS011;5195;48.562;9.192;2024-03-02T02:54:24;11.35;;;10.35;;
10299;SDS011;5195;48.562;9.192;2024-03-02T02:57:00;8.77;;;8.03;;
10299;SDS011;5195;48.562;9.192;2024-03-02T02:59:35;9.03;;;8.13;;
10299;SDS011;5195;48.562;9.192;2024-03-02T03:02:11;10.27;;;9.00;;
10299;SDS011;5195;48.562;9.192;2024-03-02T03:04:47;7.87;;;7.27;;
10299;SDS011;5195;48.562;9.192;2024-03-02T03:07:23;9.23;;;8.33;;
10299;SDS011;5195;48.562;9.192;2024-03-02T03:09:59;7.97;;;7.30;;
10299;SDS011;5195;48.562;9.192;2024-03-02T03:12:37;11.83;;;10.83;;
10299;SDS011;5195;48.562;9.192;2024-03-02T03:15:13;11.10;;;10.20;;
10299;SDS011;5195;48.562;9.192;2024-03-02T03:17:49;10.10;;;9.17;;
10299;SDS011;5195;48.562;9.192;2024-03-02T03:20:24;11.07;;;10.18;;
10299;SDS011;5195;48.562;9.192;2024-03-02T03:23:01;9.73;;;8.83;;
10299;SDS011;5195;48.562;9.192;2024-03-02T03:25:37;12.55;;;11.43;;
10299;SDS011;5195;48.562;9.192;2024-03-02T03:28:13;11.65;;;10.65;;
10299;SDS011;5195;48.562;9.192;2024-03-02T03:30:49;11.80;;;10.80;;
10299;SDS011;5195;48.562;9.192;2024-03-02T03:33:25;9.90;;;8.97;;
10299;SDS011;5195;48.562;9.192;2024-03-02T03:36:00;9.40;;;8.60;;
10299;SDS011;5195;48.562;9.192;2024-03-02T03:38:36;10.90;;;9.95;;
10299;SDS011;5195;48.562;9.192;2024-03-02T03:41:11;9.90;;;9.00;;
10299;SDS011;5195;48.562;9.192;2024-03-02T03:43:47;12.25;;;11.18;;
10299;SDS011;5195;48.562;9.192;2024-03-02T03:46:23;9.37;;;8.47;;
10299;SDS011;5195;48.562;9.192;2024-03-02T03:48:59;11.88;;;10.88;;
10299;SDS011;5195;48.562;9.192;2024-03-02T03:51:35;10.43;;;9.33;;
10299;SDS011;5195;48.562;9.192;2024-03-02T03:54:11;10.03;;;9.00;;
10299;SDS011;5195;48.562;9.192;2024-03-02T03:56:46;11.03;;;9.30;;
10299;SDS011;5195;48.562;9.192;2024-03-02T03:59:22;9.63;;;8.73;;
10299;SDS011;5195;48.562;9.192;2024-03-02T04:01:58;12.02;;;10.93;;
10299;SDS011;5195;48.562;9.192;2024-03-02T04:04:33;9.83;;;8.93;;
10299;SDS011;5195;48.562;9.192;2024-03-02T04:07:09;10.60;;;9.60;;
10299;SDS011;5195;48.562;9.192;2024-03-02T04:09:45;13.07;;;11.87;;
10299;SDS011;5195;48.562;9.192;2024-03-02T04:12:24;13.25;;;12.05;;
10299;SDS011;5195;48.562;9.192;2024-03-02T04:14:59;11.50;;;9.70;;
10299;SDS011;5195;48.562;9.192;2024-03-02T04:17:35;12.82;;;11.68;;
10299;SDS011;5195;48.562;9.192;2024-03-02T04:20:11;12.93;;;11.53;;
10299;SDS011;5195;48.562;9.192;2024-03-02T04:22:47;21.52;;;19.33;;
10299;SDS011;5195;48.562;9.192;2024-03-02T04:25:22;19.30;;;17.50;;
10299;SDS011;5195;48.562;9.192;2024-03-02T04:27:59;14.63;;;13.13;;
10299;SDS011;5195;48.562;9.192;2024-03-02T04:41:27;11.90;;;10.70;;
10299;SDS011;5195;48.562;9.192;2024-03-02T04:43:53;9.88;;;8.98;;
10299;SDS011;5195;48.562;9.192;2024-03-02T04:46:19;11.97;;;9.43;;
10299;SDS011;5195;48.562;9.192;2024-03-02T04:48:45;12.50;;;11.40;;
10299;SDS011;5195;48.562;9.192;2024-03-02T04:51:11;13.10;;;11.93;;
10299;SDS011;5195;48.562;9.192;2024-03-02T04:53:37;10.25;;;9.07;;
10299;SDS011;5195;48.562;9.192;2024-03-02T04:56:02;10.97;;;9.87;;
10299;SDS011;5195;48.562;9.192;2024-03-02T04:58:45;13.67;;;12.47;;
10299;SDS011;5195;48.562;9.192;2024-03-02T05:01:11;14.23;;;12.93;;
10299;SDS011;5195;48.562;9.192;2024-03-02T05:03:36;11.63;;;10.53;;
10299;SDS011;5195;48.562;9.192;2024-03-02T05:06:02;10.07;;;9.13;;
10299;SDS011;5195;48.562;9.192;2024-03-02T05:08:29;9.73;;;8.87;;
10299;SDS011;5195;48.562;9.192;2024-03-02T05:11:05;9.33;;;8.43;;
10299;SDS011;5195;48.562;9.192;2024-03-02T05:13:44;12.53;;;11.50;;
10299;SDS011;5195;48.562;9.192;2024-03-02T05:16:20;11.87;;;10.87;;
10299;SDS011;5195;48.562;9.192;2024-03-02T05:18:56;12.87;;;11.77;;
10299;SDS011;5195;48.562;9.192;2024-03-02T05:21:32;9.80;;;8.90;;
10299;SDS011;5195;48.562;9.192;2024-03-02T05:24:08;9.97;;;9.07;;
10299;SDS011;5195;48.562;9.192;2024-03-02T05:26:43;9.50;;;8.77;;
10299;SDS011;5195;48.562;9.192;2024-03-02T05:29:19;12.80;;;11.70;;
10299;SDS011;5195;48.562;9.192;2024-03-02T05:31:54;10.00;;;9.20;;
10299;SDS011;5195;48.562;9.192;2024-03-02T05:34:30;12.17;;;11.17;;
10299;SDS011;5195;48.562;9.192;2024-03-02T05:37:06;12.80;;;11.70;;
10299;SDS011;5195;48.562;9.192;2024-03-02T05:39:41;12.40;;;11.40;;
10299;SDS011;5195;48.562;9.192;2024-03-02T05:42:18;10.33;;;9.33;;
10299;SDS011;5195;48.562;9.192;2024-03-02T05:44:53;9.87;;;8.97;;
10299;SDS011;5195;48.562;9.192;2024-03-02T05:47:29;12.37;;;11.27;;
10299;SDS011;5195;48.562;9.192;2024-03-02T05:50:04;12.77;;;11.68;;
10299;SDS011;5195;48.562;9.192;2024-03-02T05:52:40;10.00;;;9.10;;
10299;SDS011;5195;48.562;9.192;2024-03-02T05:55:16;11.40;;;10.50;;
10299;SDS011;5195;48.562;9.192;2024-03-02T05:57:51;11.70;;;10.80;;
10299;SDS011;5195;48.562;9.192;2024-03-02T06:00:27;12.15;;;11.12;;
10299;SDS011;5195;48.562;9.192;2024-03-02T06:03:03;9.70;;;8.70;;
10299;SDS011;5195;48.562;9.192;2024-03-02T06:05:38;8.90;;;8.10;;
10299;SDS011;5195;48.562;9.192;2024-03-02T06:08:14;12.20;;;11.03;;
10299;SDS011;5195;48.562;9.192;2024-03-02T06:10:49;10.33;;;9.43;;
10299;SDS011;5195;48.562;9.192;2024-03-02T06:13:25;11.87;;;10.97;;
10299;SDS011;5195;48.562;9.192;2024-03-02T06:16:01;9.50;;;8.70;;
10299;SDS011;5195;48.562;9.192;2024-03-02T06:18:36;9.60;;;8.70;;
10299;SDS011;5195;48.562;9.192;2024-03-02T06:21:12;8.77;;;7.97;;
10299;SDS011;5195;48.562;9.192;2024-03-02T06:23:47;8.97;;;8.10;;
10299;SDS011;5195;48.562;9.192;2024-03-02T06:26:23;9.53;;;8.73;;
10299;SDS011;5195;48.562;9.192;2024-03-02T06:28:58;8.90;;;8.07;;
10299;SDS011;5195;48.562;9.192;2024-03-02T06:31:34;8.50;;;7.70;;
10299;SDS011;5195;48.562;9.192;2024-03-02T06:34:10;8.90;;;8.20;;
10299;SDS011;5195;48.562;9.192;2024-03-02T06:36:46;11.02;;;10.13;;
10299;SDS011;5195;48.562;9.192;2024-03-02T06:39:22;12.15;;;11.15;;
10299;SDS011;5195;48.562;9.192;2024-03-02T06:42:00;11.40;;;10.50;;
10299;SDS011;5195;48.562;9.192;2024-03-02T06:44:35;11.43;;;10.52;;
10299;SDS011;5195;48.562;9.192;2024-03-02T06:47:11;11.40;;;10.50;;
10299;SDS011;5195;48.562;9.192;2024-03-02T06:49:46;10.13;;;9.07;;
10299;SDS011;5195;48.562;9.192;2024-03-02T06:52:22;10.10;;;9.20;;
10299;SDS011;5195;48.562;9.192;2024-03-02T06:54:57;12.60;;;11.50;;
10299;SDS011;5195;48.562;9.192;2024-03-02T06:57:33;9.02;;;8.32;;
10299;SDS011;5195;48.562;9.192;2024-03-02T07:00:10;10.50;;;9.70;;
10299;SDS011;5195;48.562;9.192;2024-03-02T07:02:46;11.23;;;10.32;;
10299;SDS011;5195;48.562;9.192;2024-03-02T07:05:23;11.13;;;10.33;;
10299;SDS011;5195;48.562;9.192;2024-03-02T07:07:59;10.10;;;9.27;;
10299;SDS011;5195;48.562;9.192;2024-03-02T07:10:34;9.07;;;8.33;;
10299;SDS011;5195;48.562;9.192;2024-03-02T07:13:10;10.95;;;10.02;;
10299;SDS011;5195;48.562;9.192;2024-03-02T07:15:46;8.67;;;7.87;;
10299;SDS011;5195;48.562;9.192;2024-03-02T07:18:38;11.02;;;10.07;;
10299;SDS011;5195;48.562;9.192;2024-03-02T07:21:27;8.40;;;7.70;;
10299;SDS011;5195;48.562;9.192;2024-03-02T07:24:03;8.10;;;7.40;;
10299;SDS011;5195;48.562;9.192;2024-03-02T07:26:39;8.03;;;7.30;;
10299;SDS011;5195;48.562;9.192;2024-03-02T07:29:15;7.67;;;7.07;;
10299;SDS011;5195;48.562;9.192;2024-03-02T07:31:51;7.73;;;7.13;;
10299;SDS011;5195;48.562;9.192;2024-03-02T07:34:27;8.65;;;8.02;;
10299;SDS011;5195;48.562;9.192;2024-03-02T07:37:03;9.47;;;8.77;;
10299;SDS011;5195;48.562;9.192;2024-03-02T07:39:39;7.93;;;7.23;;
10299;SDS011;5195;48.562;9.192;2024-03-02T07:42:14;7.20;;;6.60;;
10299;SDS011;5195;48.562;9.192;2024-03-02T07:44:51;9.00;;;8.18;;
10299;SDS011;5195;48.562;9.192;2024-03-02T07:47:29;7.50;;;6.90;;
10299;SDS011;5195;48.562;9.192;2024-03-02T07:50:06;9.20;;;8.50;;
10299;SDS011;5195;48.562;9.192;2024-03-02T07:52:41;9.73;;;9.02;;
10299;SDS011;5195;48.562;9.192;2024-03-02T07:55:19;8.47;;;7.73;;
10299;SDS011;5195;48.562;9.192;2024-03-02T07:57:55;9.30;;;8.70;;
10299;SDS011;5195;48.562;9.192;2024-03-02T08:00:32;7.80;;;7.20;;
10299;SDS011;5195;48.562;9.192;2024-03-02T08:03:07;7.73;;;7.10;;
10299;SDS011;5195;48.562;9.192;2024-03-02T08:05:43;9.30;;;7.77;;
10299;SDS011;5195;48.562;9.192;2024-03-02T08:08:18;8.60;;;8.02;;
10299;SDS011;5195;48.562;9.192;2024-03-02T08:10:54;7.80;;;7.20;;
10299;SDS011;5195;48.562;9.192;2024-03-02T08:13:30;8.85;;;8.25;;
10299;SDS011;5195;48.562;9.192;2024-03-02T08:16:05;8.75;;;8.15;;
10299;SDS011;5195;48.562;9.192;2024-03-02T08:18:41;8.67;;;7.93;;
10299;SDS011;5195;48.562;9.192;2024-03-02T08:21:16;8.30;;;7.80;;
10299;SDS011;5195;48.562;9.192;2024-03-02T08:23:52;7.62;;;7.12;;
10299;SDS011;5195;48.562;9.192;2024-03-02T08:26:28;6.57;;;6.10;;
10299;SDS011;5195;48.562;9.192;2024-03-02T08:29:06;7.53;;;7.03;;
10299;SDS011;5195;48.562;9.192;2024-03-02T08:31:42;6.43;;;6.03;;
10299;SDS011;5195;48.562;9.192;2024-03-02T08:34:17;6.60;;;6.10;;
10299;SDS011;5195;48.562;9.192;2024-03-02T08:36:53;6.23;;;5.73;;
10299;SDS011;5195;48.562;9.192;2024-03-02T08:39:29;6.62;;;6.22;;
10299;SDS011;5195;48.562;9.192;2024-03-02T08:42:04;12.70;;;6.30;;
10299;SDS011;5195;48.562;9.192;2024-03-02T08:44:41;33.83;;;19.77;;
10299;SDS011;5195;48.562;9.192;2024-03-02T08:47:16;14.57;;;9.93;;
10299;SDS011;5195;48.562;9.192;2024-03-02T08:49:53;7.27;;;6.50;;
10299;SDS011;5195;48.562;9.192;2024-03-02T08:52:28;5.80;;;5.30;;
10299;SDS011;5195;48.562;9.192;2024-03-02T08:55:04;6.10;;;5.60;;
10299;SDS011;5195;48.562;9.192;2024-03-02T08:57:40;7.07;;;6.57;;
10299;SDS011;5195;48.562;9.192;2024-03-02T09:00:15;7.30;;;6.80;;
10299;SDS011;5195;48.562;9.192;2024-03-02T09:02:51;8.07;;;7.47;;
10299;SDS011;5195;48.562;9.192;2024-03-02T09:05:27;8.20;;;7.60;;
10299;SDS011;5195;48.562;9.192;2024-03-02T09:08:03;6.63;;;6.07;;
10299;SDS011;5195;48.562;9.192;2024-03-02T09:10:38;7.53;;;6.93;;
10299;SDS011;5195;48.562;9.192;2024-03-02T09:13:15;6.43;;;5.90;;
10299;SDS011;5195;48.562;9.192;2024-03-02T09:15:51;6.73;;;6.23;;
10299;SDS011;5195;48.562;9.192;2024-03-02T09:18:26;7.40;;;6.90;;
10299;SDS011;5195;48.562;9.192;2024-03-02T09:21:01;7.50;;;6.80;;
10299;SDS011;5195;48.562;9.192;2024-03-02T09:23:38;7.70;;;7.13;;
10299;SDS011;5195;48.562;9.192;2024-03-02T09:26:14;7.10;;;6.50;;
10299;SDS011;5195;48.562;9.192;2024-03-02T09:28:49;6.87;;;6.30;;
10299;SDS011;5195;48.562;9.192;2024-03-02T09:31:25;7.33;;;6.73;;
10299;SDS011;5195;48.562;9.192;2024-03-02T09:34:01;7.80;;;7.23;;
10299;SDS011;5195;48.562;9.192;2024-03-02T09:36:36;7.70;;;7.23;;
10299;SDS011;5195;48.562;9.192;2024-03-02T09:39:12;7.35;;;6.85;;
10299;SDS011;5195;48.562;9.192;2024-03-02T09:41:48;5.40;;;5.10;;
10299;SDS011;5195;48.562;9.192;2024-03-02T09:44:23;5.60;;;5.30;;
10299;SDS011;5195;48.562;9.192;2024-03-02T09:46:59;5.10;;;4.80;;
10299;SDS011;5195;48.562;9.192;2024-03-02T09:49:34;5.87;;;5.47;;
10299;SDS011;5195;48.562;9.192;2024-03-02T09:52:10;5.37;;;4.97;;
10299;SDS011;5195;48.562;9.192;2024-03-02T09:54:47;6.30;;;5.90;;
10299;SDS011;5195;48.562;9.192;2024-03-02T09:57:21;5.57;;;5.20;;
10299;SDS011;5195;48.562;9.192;2024-03-02T09:59:57;6.75;;;6.35;;
10299;SDS011;5195;48.562;9.192;2024-03-02T10:02:32;5.63;;;5.23;;
10299;SDS011;5195;48.562;9.192;2024-03-02T10:05:09;7.07;;;6.68;;
10299;SDS011;5195;48.562;9.192;2024-03-02T10:07:49;6.63;;;6.07;;
10299;SDS011;5195;48.562;9.192;2024-03-02T10:10:21;6.90;;;6.47;;
10299;SDS011;5195;48.562;9.192;2024-03-02T10:13:03;5.87;;;5.47;;
10299;SDS011;5195;48.562;9.192;2024-03-02T10:15:42;5.77;;;5.37;;
10299;SDS011;5195;48.562;9.192;2024-03-02T10:18:18;5.73;;;5.30;;
10299;SDS011;5195;48.562;9.192;2024-03-02T10:20:54;5.30;;;4.90;;
10299;SDS011;5195;48.562;9.192;2024-03-02T10:23:29;6.28;;;5.75;;
10299;SDS011;5195;48.562;9.192;2024-03-02T10:26:18;6.57;;;6.17;;
10299;SDS011;5195;48.562;9.192;2024-03-02T10:28:54;6.12;;;5.72;;
10299;SDS011;5195;48.562;9.192;2024-03-02T10:31:30;6.37;;;5.97;;
10299;SDS011;5195;48.562;9.192;2024-03-02T10:34:06;6.27;;;5.80;;
10299;SDS011;5195;48.562;9.192;2024-03-02T10:36:41;6.03;;;5.63;;
10299;SDS011;5195;48.562;9.192;2024-03-02T10:39:17;6.20;;;5.80;;
10299;SDS011;5195;48.562;9.192;2024-03-02T10:41:53;7.00;;;6.57;;
10299;SDS011;5195;48.562;9.192;2024-03-02T10:44:29;8.03;;;7.53;;
10299;SDS011;5195;48.562;9.192;2024-03-02T10:47:04;6.43;;;5.93;;
10299;SDS011;5195;48.562;9.192;2024-03-02T10:49:40;5.13;;;4.73;;
10299;SDS011;5195;48.562;9.192;2024-03-02T10:52:15;4.10;;;3.80;;
10299;SDS011;5195;48.562;9.192;2024-03-02T10:54:51;4.80;;;4.50;;
10299;SDS011;5195;48.562;9.192;2024-03-02T10:57:26;5.27;;;4.10;;
10299;SDS011;5195;48.562;9.192;2024-03-02T11:00:03;4.62;;;4.32;;
10299;SDS011;5195;48.562;9.192;2024-03-02T11:02:46;4.15;;;3.92;;
10299;SDS011;5195;48.562;9.192;2024-03-02T11:05:24;3.83;;;3.63;;
10299;SDS011;5195;48.562;9.192;2024-03-02T11:08:07;4.63;;;4.30;;
10299;SDS011;5195;48.562;9.192;2024-03-02T11:10:47;5.33;;;4.97;;
10299;SDS011;5195;48.562;9.192;2024-03-02T11:13:22;4.50;;;4.20;;
10299;SDS011;5195;48.562;9.192;2024-03-02T11:16:04;4.83;;;4.60;;
10299;SDS011;5195;48.562;9.192;2024-03-02T11:18:39;5.33;;;5.03;;
10299;SDS011;5195;48.562;9.192;2024-03-02T11:21:15;4.93;;;4.47;;
10299;SDS011;5195;48.562;9.192;2024-03-02T11:23:50;5.13;;;4.83;;
10299;SDS011;5195;48.562;9.192;2024-03-02T11:26:26;5.00;;;4.70;;
10299;SDS011;5195;48.562;9.192;2024-03-02T11:29:01;3.80;;;3.60;;
10299;SDS011;5195;48.562;9.192;2024-03-02T11:31:57;4.68;;;4.20;;
10299;SDS011;5195;48.562;9.192;2024-03-02T11:34:29;4.03;;;3.83;;
10299;SDS011;5195;48.562;9.192;2024-03-02T11:37:12;3.73;;;3.53;;
10299;SDS011;5195;48.562;9.192;2024-03-02T11:39:49;3.27;;;3.07;;
10299;SDS011;5195;48.562;9.192;2024-03-02T11:42:23;2.47;;;2.27;;
10299;SDS011;5195;48.562;9.192;2024-03-02T11:45:00;3.10;;;2.90;;
10299;SDS011;5195;48.562;9.192;2024-03-02T11:47:37;3.03;;;2.83;;
10299;SDS011;5195;48.562;9.192;2024-03-02T11:50:12;2.50;;;2.40;;
10299;SDS011;5195;48.562;9.192;2024-03-02T11:52:48;2.07;;;1.97;;
10299;SDS011;5195;48.562;9.192;2024-03-02T11:55:25;2.90;;;2.70;;
10299;SDS011;5195;48.562;9.192;2024-03-02T11:58:01;3.73;;;3.53;;
10299;SDS011;5195;48.562;9.192;2024-03-02T12:00:35;2.97;;;2.87;;
10299;SDS011;5195;48.562;9.192;2024-03-02T12:03:12;3.50;;;3.30;;
10299;SDS011;5195;48.562;9.192;2024-03-02T12:05:55;4.00;;;3.70;;
10299;SDS011;5195;48.562;9.192;2024-03-02T12:08:30;3.13;;;2.93;;
10299;SDS011;5195;48.562;9.192;2024-03-02T12:11:06;3.10;;;2.90;;
10299;SDS011;5195;48.562;9.192;2024-03-02T12:13:41;3.40;;;3.10;;
10299;SDS011;5195;48.562;9.192;2024-03-02T12:16:25;2.47;;;2.33;;
10299;SDS011;5195;48.562;9.192;2024-03-02T12:19:00;1.67;;;1.57;;
10299;SDS011;5195;48.562;9.192;2024-03-02T12:21:36;2.30;;;2.20;;
10299;SDS011;5195;48.562;9.192;2024-03-02T12:24:13;1.90;;;1.80;;
10299;SDS011;5195;48.562;9.192;2024-03-02T12:26:49;1.97;;;1.87;;
10299;SDS011;5195;48.562;9.192;2024-03-02T12:29:24;2.33;;;2.23;;
10299;SDS011;5195;48.562;9.192;2024-03-02T12:31:59;2.80;;;2.60;;
10299;SDS011;5195;48.562;9.192;2024-03-02T12:34:35;1.80;;;1.70;;
10299;SDS011;5195;48.562;9.192;2024-03-02T12:37:12;1.83;;;1.73;;
10299;SDS011;5195;48.562;9.192;2024-03-02T12:39:47;1.83;;;1.77;;
10299;SDS011;5195;48.562;9.192;2024-03-02T12:42:23;2.10;;;2.00;;
10299;SDS011;5195;48.562;9.192;2024-03-02T12:44:59;2.20;;;2.00;;
10299;SDS011;5195;48.562;9.192;2024-03-02T12:47:35;2.53;;;2.43;;
10299;SDS011;5195;48.562;9.192;2024-03-02T12:50:11;1.80;;;1.80;;
10299;SDS011;5195;48.562;9.192;2024-03-02T12:52:53;2.10;;;2.00;;
10299;SDS011;5195;48.562;9.192;2024-03-02T12:55:28;1.50;;;1.50;;
10299;SDS011;5195;48.562;9.192;2024-03-02T12:58:04;2.28;;;1.27;;
10299;SDS011;5195;48.562;9.192;2024-03-02T13:00:40;1.60;;;1.50;;
10299;SDS011;5195;48.562;9.192;2024-03-02T13:03:17;1.50;;;1.50;;
10299;SDS011;5195;48.562;9.192;2024-03-02T13:05:52;1.60;;;1.30;;
10299;SDS011;5195;48.562;9.192;2024-03-02T13:08:27;1.30;;;1.30;;
10299;SDS011;5195;48.562;9.192;2024-03-02T13:11:03;1.75;;;1.65;;
10299;SDS011;5195;48.562;9.192;2024-03-02T13:13:39;1.70;;;1.60;;
10299;SDS011;5195;48.562;9.192;2024-03-02T13:16:14;1.17;;;1.17;;
10299;SDS011;5195;48.562;9.192;2024-03-02T13:18:50;1.50;;;1.40;;
10299;SDS011;5195;48.562;9.192;2024-03-02T13:21:25;1.47;;;1.43;;
10299;SDS011;5195;48.562;9.192;2024-03-02T13:24:01;1.40;;;1.40;;
10299;SDS011;5195;48.562;9.192;2024-03-02T13:26:37;2.17;;;2.07;;
10299;SDS011;5195;48.562;9.192;2024-03-02T13:29:13;2.87;;;1.70;;
10299;SDS011;5195;48.562;9.192;2024-03-02T13:31:48;1.30;;;1.30;;
10299;SDS011;5195;48.562;9.192;2024-03-02T13:34:25;1.40;;;1.30;;
10299;SDS011;5195;48.562;9.192;2024-03-02T13:37:00;1.30;;;1.30;;
10299;SDS011;5195;48.562;9.192;2024-03-02T13:39:36;1.20;;;1.10;;
10299;SDS011;5195;48.562;9.192;2024-03-02T13:42:12;1.30;;;1.30;;
10299;SDS011;5195;48.562;9.192;2024-03-02T13:44:48;1.03;;;1.03;;
10299;SDS011;5195;48.562;9.192;2024-03-02T13:47:25;0.87;;;0.87;;
10299;SDS011;5195;48.562;9.192;2024-03-02T13:50:01;1.50;;;1.40;;
10299;SDS011;5195;48.562;9.192;2024-03-02T13:52:36;1.30;;;1.30;;
10299;SDS011;5195;48.562;9.192;2024-03-02T13:55:12;1.27;;;1.00;;
10299;SDS011;5195;48.562;9.192;2024-03-02T13:57:48;1.00;;;1.00;;
10299;SDS011;5195;48.562;9.192;2024-03-02T14:00:23;1.00;;;0.90;;
10299;SDS011;5195;48.562;9.192;2024-03-02T14:02:59;1.40;;;1.30;;
10299;SDS011;5195;48.562;9.192;2024-03-02T14:05:34;1.10;;;1.10;;
10299;SDS011;5195;48.562;9.192;2024-03-02T14:08:10;1.00;;;1.00;;
10299;SDS011;5195;48.562;9.192;2024-03-02T14:10:45;1.20;;;1.10;;
10299;SDS011;5195;48.562;9.192;2024-03-02T14:13:21;1.17;;;1.10;;
10299;SDS011;5195;48.562;9.192;2024-03-02T14:15:57;1.07;;;1.00;;
10299;SDS011;5195;48.562;9.192;2024-03-02T14:18:33;1.27;;;1.27;;
10299;SDS011;5195;48.562;9.192;2024-03-02T14:21:09;7.53;;;7.07;;
10299;SDS011;5195;48.562;9.192;2024-03-02T14:23:45;1.53;;;1.37;;
10299;SDS011;5195;48.562;9.192;2024-03-02T14:26:20;0.83;;;0.83;;
10299;SDS011;5195;48.562;9.192;2024-03-02T14:28:56;0.90;;;0.90;;
10299;SDS011;5195;48.562;9.192;2024-03-02T14:31:32;1.63;;;1.00;;
10299;SDS011;5195;48.562;9.192;2024-03-02T14:34:07;0.93;;;0.82;;
10299;SDS011;5195;48.562;9.192;2024-03-02T14:36:43;0.60;;;0.60;;
10299;SDS011;5195;48.562;9.192;2024-03-02T14:39:18;1.40;;;1.00;;
10299;SDS011;5195;48.562;9.192;2024-03-02T14:41:54;0.90;;;0.90;;
10299;SDS011;5195;48.562;9.192;2024-03-02T14:44:30;0.80;;;0.80;;
10299;SDS011;5195;48.562;9.192;2024-03-02T14:47:06;1.00;;;1.00;;
10299;SDS011;5195;48.562;9.192;2024-03-02T14:49:42;0.80;;;0.80;;
10299;SDS011;5195;48.562;9.192;2024-03-02T14:52:18;0.80;;;0.80;;
10299;SDS011;5195;48.562;9.192;2024-03-02T14:54:53;1.30;;;1.20;;
10299;SDS011;5195;48.562;9.192;2024-03-02T14:57:29;1.23;;;1.23;;
10299;SDS011;5195;48.562;9.192;2024-03-02T15:00:05;1.55;;;1.30;;
10299;SDS011;5195;48.562;9.192;2024-03-02T15:02:42;1.05;;;1.05;;
10299;SDS011;5195;48.562;9.192;2024-03-02T15:05:17;1.30;;;1.27;;
10299;SDS011;5195;48.562;9.192;2024-03-02T15:07:54;1.20;;;1.20;;
10299;SDS011;5195;48.562;9.192;2024-03-02T15:10:29;1.73;;;1.63;;
10299;SDS011;5195;48.562;9.192;2024-03-02T15:13:06;2.30;;;2.20;;
10299;SDS011;5195;48.562;9.192;2024-03-02T15:15:41;2.50;;;2.30;;
10299;SDS011;5195;48.562;9.192;2024-03-02T15:18:18;2.00;;;1.90;;
10299;SDS011;5195;48.562;9.192;2024-03-02T15:20:53;1.27;;;1.27;;
10299;SDS011;5195;48.562;9.192;2024-03-02T15:23:29;1.30;;;1.30;;
10299;SDS011;5195;48.562;9.192;2024-03-02T15:26:04;2.00;;;1.77;;
10299;SDS011;5195;48.562;9.192;2024-03-02T15:28:40;1.50;;;1.40;;
10299;SDS011;5195;48.562;9.192;2024-03-02T15:31:15;1.23;;;1.23;;
10299;SDS011;5195;48.562;9.192;2024-03-02T15:33:52;3.00;;;1.33;;
10299;SDS011;5195;48.562;9.192;2024-03-02T15:36:28;1.00;;;1.00;;
10299;SDS011;5195;48.562;9.192;2024-03-02T15:39:03;1.10;;;1.10;;
10299;SDS011;5195;48.562;9.192;2024-03-02T15:41:40;1.23;;;1.20;;
10299;SDS011;5195;48.562;9.192;2024-03-02T15:44:18;1.00;;;1.00;;
10299;SDS011;5195;48.562;9.192;2024-03-02T15:46:54;2.42;;;1.90;;
10299;SDS011;5195;48.562;9.192;2024-03-02T15:49:29;3.47;;;2.53;;
10299;SDS011;5195;48.562;9.192;2024-03-02T15:52:05;3.20;;;2.93;;
10299;SDS011;5195;48.562;9.192;2024-03-02T15:54:40;2.00;;;1.90;;
10299;SDS011;5195;48.562;9.192;2024-03-02T15:57:16;2.53;;;2.20;;
10299;SDS011;5195;48.562;9.192;2024-03-02T15:59:52;2.77;;;1.47;;
10299;SDS011;5195;48.562;9.192;2024-03-02T16:02:27;1.77;;;1.67;;